Time;durP1;ratioP1;P1;durP2;ratioP2;P2;SDS_P1;SDS_P2;PMS_P1;PMS_P2;Temp;Humidity;BMP_temperature;BMP_pressure;BME280_temperature;BME280_humidity;BME280_pressure;Samples;Min_cycle;Max_cycle;Signal;HPM_P1;HPM_P2
2023/07/02 00:00:00;;;;;;;2.72;1.33;;;;;;;23.01;44.26;100730.97;16112546;19;130380;-45
2023/07/02 00:05:22;;;;;;;2.85;1.40;;;;;;;23.00;44.05;100732.94;16109179;19;132366;-45
2023/07/02 00:10:44;;;;;;;4.07;1.67;;;;;;;22.99;44.00;100717.31;16108168;19;129488;-45
2023/07/02 00:16:07;;;;;;;3.08;1.75;;;;;;;22.99;44.20;100731.28;16108119;19;131414;-45
2023/07/02 00:21:29;;;;;;;3.10;1.40;;;;;;;22.99;43.86;100725.69;16111350;19;130161;-51
2023/07/02 00:26:51;;;;;;;2.88;1.75;;;;;;;22.98;43.99;100731.53;16109396;19;129854;-44
2023/07/02 00:32:13;;;;;;;2.08;1.38;;;;;;;22.96;44.06;100729.03;16111190;19;132537;-48
2023/07/02 00:37:35;;;;;;;2.72;1.55;;;;;;;22.95;44.34;100726.53;16108394;19;132289;-47
2023/07/02 00:42:56;;;;;;;3.70;1.95;;;;;;;22.95;44.01;100732.13;16110941;19;130426;-47
2023/07/02 00:48:18;;;;;;;3.15;1.48;;;;;;;22.94;43.94;100731.28;16103662;19;130562;-44
2023/07/02 00:53:40;;;;;;;2.33;1.80;;;;;;;22.93;43.92;100737.97;16103114;19;129772;-49
2023/07/02 00:59:02;;;;;;;3.22;1.88;;;;;;;22.92;43.75;100738.25;16106158;19;129387;-46
2023/07/02 01:04:27;;;;;;;3.80;2.38;;;;;;;22.93;43.94;100742.72;16105869;19;129756;-42
2023/07/02 01:09:49;;;;;;;3.60;2.30;;;;;;;22.91;43.56;100744.94;16103552;19;131490;-47
2023/07/02 01:15:12;;;;;;;3.75;2.20;;;;;;;22.91;43.92;100742.16;16107438;19;129384;-48
2023/07/02 01:20:36;;;;;;;3.90;2.45;;;;;;;22.90;43.86;100744.09;16100487;19;131254;-46
2023/07/02 01:25:59;;;;;;;4.05;2.03;;;;;;;22.89;43.75;100745.22;16112024;19;129903;-44
2023/07/02 01:31:24;;;;;;;5.88;2.45;;;;;;;22.89;43.44;100745.22;16122643;19;129855;-51
2023/07/02 01:36:46;;;;;;;3.33;2.10;;;;;;;22.88;43.76;100754.69;16116948;19;130254;-45
2023/07/02 01:42:16;;;;;;;5.20;2.85;;;;;;;22.88;43.90;100754.69;16120304;19;131634;-45
2023/07/02 01:47:39;;;;;;;4.90;2.53;;;;;;;22.86;43.91;100754.13;16121746;19;130508;-50
2023/07/02 01:53:00;;;;;;;4.93;2.90;;;;;;;22.86;43.71;100759.69;16120836;19;130992;-50
2023/07/02 01:58:22;;;;;;;4.13;2.47;;;;;;;22.86;43.68;100757.75;16116840;19;129753;-47
2023/07/02 02:03:44;;;;;;;4.63;2.72;;;;;;;22.84;43.81;100754.38;16122905;19;130750;-47
2023/07/02 02:09:07;;;;;;;3.80;2.38;;;;;;;22.84;43.66;100759.16;16118722;19;130756;-44
2023/07/02 02:14:29;;;;;;;6.13;2.70;;;;;;;22.85;43.92;100766.41;16115628;19;130033;-46
2023/07/02 02:19:51;;;;;;;4.78;2.63;;;;;;;22.83;43.61;100763.88;16115770;19;129541;-45
2023/07/02 02:25:13;;;;;;;5.13;3.10;;;;;;;22.83;43.74;100763.03;16115997;19;130917;-44
2023/07/02 02:30:35;;;;;;;5.35;2.55;;;;;;;22.83;43.65;100777.00;16119184;19;132552;-45
2023/07/02 02:35:57;;;;;;;4.22;2.70;;;;;;;22.83;43.68;100777.00;16116052;19;129682;-49
2023/07/02 02:41:19;;;;;;;4.05;2.63;;;;;;;22.82;43.71;100780.91;16115229;19;129982;-47
2023/07/02 02:46:41;;;;;;;4.03;2.90;;;;;;;22.81;43.48;100793.16;16119755;19;130144;-46
2023/07/02 02:52:03;;;;;;;5.28;2.90;;;;;;;22.81;43.81;100795.94;16118405;19;129885;-46
2023/07/02 02:57:25;;;;;;;5.28;3.13;;;;;;;22.80;43.83;100792.34;16114701;19;132015;-49
2023/07/02 03:02:47;;;;;;;4.28;2.60;;;;;;;22.80;43.48;100797.06;16115418;19;130478;-50
2023/07/02 03:08:09;;;;;;;4.13;2.90;;;;;;;22.80;44.02;100811.00;16113121;19;130546;-45
2023/07/02 03:13:31;;;;;;;4.72;3.22;;;;;;;22.79;43.58;100812.13;16113877;19;131465;-48
2023/07/02 03:18:53;;;;;;;4.20;2.67;;;;;;;22.78;43.75;100821.59;16110583;19;130494;-47
2023/07/02 03:24:16;;;;;;;3.95;2.63;;;;;;;22.78;43.56;100824.38;16107915;19;130215;-53
2023/07/02 03:29:38;;;;;;;4.35;2.85;;;;;;;22.77;43.31;100819.94;16115112;19;129702;-51
2023/07/02 03:35:01;;;;;;;4.82;2.67;;;;;;;22.75;43.67;100823.00;16113920;19;130551;-53
2023/07/02 03:40:23;;;;;;;4.18;2.88;;;;;;;22.75;43.70;100825.78;16113753;19;131071;-53
2023/07/02 03:45:45;;;;;;;4.65;2.50;;;;;;;22.74;43.63;100836.13;16114071;19;130395;-51
2023/07/02 03:51:07;;;;;;;3.97;2.80;;;;;;;22.74;43.59;100833.34;16111091;19;130658;-48
2023/07/02 03:56:28;;;;;;;4.13;2.30;;;;;;;22.73;43.67;100836.38;16116191;19;130288;-54
2023/07/02 04:01:51;;;;;;;4.00;2.78;;;;;;;22.73;43.59;100848.38;16102875;19;130824;-55
2023/07/02 04:07:13;;;;;;;4.15;2.78;;;;;;;22.72;43.74;100857.00;16110371;19;129371;-52
2023/07/02 04:12:35;;;;;;;3.85;2.80;;;;;;;22.71;43.60;100850.59;16103943;19;130155;-50
2023/07/02 04:17:57;;;;;;;3.47;2.65;;;;;;;22.70;43.74;100860.09;16099821;19;134112;-51
2023/07/02 04:23:19;;;;;;;4.90;2.95;;;;;;;22.70;43.42;100862.88;16105909;19;131513;-43
2023/07/02 04:28:41;;;;;;;4.25;2.85;;;;;;;22.69;43.57;100864.00;16113511;19;130498;-46
2023/07/02 04:34:05;;;;;;;3.50;2.72;;;;;;;22.71;43.62;100866.47;16110700;19;129697;-44
2023/07/02 04:39:27;;;;;;;3.80;2.63;;;;;;;22.69;43.71;100869.56;16108839;19;129299;-45
2023/07/02 04:44:49;;;;;;;4.60;3.08;;;;;;;22.69;43.59;100874.31;16106573;19;129553;-45
2023/07/02 04:50:14;;;;;;;5.25;3.28;;;;;;;22.68;43.42;100872.63;16106627;19;129625;-43
2023/07/02 04:55:36;;;;;;;5.00;2.95;;;;;;;22.67;43.65;100884.91;16106846;19;130092;-46
2023/07/02 05:00:57;;;;;;;5.18;3.47;;;;;;;22.66;43.45;100881.25;16107503;19;129414;-45
2023/07/02 05:06:19;;;;;;;4.90;3.17;;;;;;;22.67;43.56;100885.72;16109453;19;131148;-45
2023/07/02 05:11:41;;;;;;;4.78;3.63;;;;;;;22.66;43.57;100889.63;16111795;19;130724;-45
2023/07/02 05:17:03;;;;;;;4.85;3.45;;;;;;;22.66;43.68;100899.97;16106404;19;130284;-48
2023/07/02 05:22:25;;;;;;;4.95;3.47;;;;;;;22.66;43.55;100898.00;16102780;19;131709;-47
2023/07/02 05:27:50;;;;;;;6.05;4.00;;;;;;;22.64;43.67;100905.81;16108207;19;129666;-45
2023/07/02 05:33:13;;;;;;;6.80;4.00;;;;;;;22.65;43.23;100901.88;16106754;19;130240;-48
2023/07/02 05:38:34;;;;;;;4.75;3.65;;;;;;;22.65;43.37;100913.03;16110878;19;129738;-43
2023/07/02 05:43:57;;;;;;;11.65;7.60;;;;;;;22.65;43.31;100918.63;16106562;19;131005;-43
2023/07/02 05:49:19;;;;;;;18.55;10.30;;;;;;;22.65;43.31;100923.38;16105809;19;130784;-45
2023/07/02 05:54:41;;;;;;;21.23;11.35;;;;;;;22.65;43.08;100921.41;16106100;19;130099;-45
2023/07/02 06:00:07;;;;;;;21.58;12.63;;;;;;;22.65;43.11;100929.78;16102846;19;129633;-44
2023/07/02 06:05:29;;;;;;;29.23;15.02;;;;;;;22.63;43.04;100932.03;16103868;19;130220;-44
2023/07/02 06:10:51;;;;;;;27.77;15.60;;;;;;;22.63;42.77;100937.59;16100530;19;130663;-43
2023/07/02 06:16:13;;;;;;;28.30;15.27;;;;;;;22.63;42.75;100945.13;16119393;19;129652;-44
2023/07/02 06:21:36;;;;;;;31.52;17.10;;;;;;;22.63;43.02;100942.31;16122080;19;130473;-43
2023/07/02 06:26:58;;;;;;;33.53;17.35;;;;;;;22.61;42.76;100950.13;16120209;19;131214;-43
2023/07/02 06:32:20;;;;;;;29.52;16.63;;;;;;;22.61;42.61;100950.97;16119812;19;130033;-46
2023/07/02 06:37:42;;;;;;;30.73;17.20;;;;;;;22.62;42.77;100952.66;16120975;19;130355;-44
2023/07/02 06:43:04;;;;;;;30.08;17.55;;;;;;;22.62;42.86;100969.38;16117920;19;130361;-47
2023/07/02 06:48:26;;;;;;;30.58;16.65;;;;;;;22.64;42.25;100975.53;16112483;19;130946;-41
2023/07/02 06:53:48;;;;;;;33.35;17.13;;;;;;;22.66;42.47;100978.03;16115597;19;130784;-42
2023/07/02 06:59:10;;;;;;;34.50;18.40;;;;;;;22.67;42.38;100988.91;16113577;19;129902;-42
2023/07/02 07:04:32;;;;;;;32.35;16.58;;;;;;;22.68;42.51;100990.59;16119841;19;134131;-42
2023/07/02 07:09:54;;;;;;;30.17;16.10;;;;;;;22.68;42.11;100992.53;16115140;19;129350;-42
2023/07/02 07:15:16;;;;;;;31.95;15.40;;;;;;;22.68;42.29;100996.16;16119433;19;131094;-42
2023/07/02 07:20:43;;;;;;;32.70;16.60;;;;;;;22.69;41.57;101003.41;16118654;19;130622;-44
2023/07/02 07:26:06;;;;;;;28.25;14.85;;;;;;;22.69;41.89;101008.16;16114635;19;129379;-47
2023/07/02 07:31:28;;;;;;;31.33;16.02;;;;;;;22.67;41.61;101011.22;16117381;19;130416;-43
2023/07/02 07:36:49;;;;;;;27.30;15.00;;;;;;;22.67;41.32;101016.78;16114034;19;129262;-46
2023/07/02 07:42:11;;;;;;;32.17;14.50;;;;;;;22.66;41.29;101015.09;16116069;19;130559;-44
2023/07/02 07:47:33;;;;;;;32.75;15.55;;;;;;;22.67;41.02;101027.13;16113783;19;130362;-42
2023/07/02 07:52:55;;;;;;;29.05;15.00;;;;;;;22.67;41.08;101027.94;16115740;19;129500;-45
2023/07/02 07:58:17;;;;;;;24.25;12.75;;;;;;;22.67;40.93;101030.72;16111007;19;132187;-42
2023/07/02 08:03:39;;;;;;;19.23;11.27;;;;;;;22.69;40.46;101031.31;16113526;19;131693;-45
2023/07/02 08:09:03;;;;;;;22.90;10.32;;;;;;;22.71;40.31;101037.44;16112922;19;129604;-43
2023/07/02 08:14:25;;;;;;;17.50;9.32;;;;;;;22.72;39.84;101027.97;16116177;19;131972;-43
2023/07/02 08:19:46;;;;;;;22.45;9.98;;;;;;;22.72;39.74;101039.13;16111406;19;129451;-49
2023/07/02 08:25:08;;;;;;;18.85;9.02;;;;;;;22.74;39.72;101041.66;16109645;19;131409;-48
2023/07/02 08:30:30;;;;;;;20.10;9.07;;;;;;;22.74;39.23;101038.84;16115459;19;129370;-48
2023/07/02 08:35:52;;;;;;;16.60;8.57;;;;;;;22.77;39.35;101021.59;16111826;19;129945;-45
2023/07/02 08:41:15;;;;;;;19.45;8.40;;;;;;;22.79;39.31;101024.94;16110586;19;130420;-45
2023/07/02 08:46:37;;;;;;;15.98;7.68;;;;;;;22.79;38.97;101019.38;16114198;19;129684;-48
2023/07/02 08:51:59;;;;;;;15.95;7.07;;;;;;;22.80;38.76;101031.34;16107296;19;132085;-43
2023/07/02 08:57:21;;;;;;;14.77;7.28;;;;;;;22.79;38.52;101044.47;16108061;19;129423;-44
2023/07/02 09:02:43;;;;;;;13.80;7.18;;;;;;;22.78;38.54;101040.00;16106832;19;130881;-44
2023/07/02 09:08:05;;;;;;;15.77;6.90;;;;;;;22.77;38.36;101049.47;16109763;19;129559;-44
2023/07/02 09:13:27;;;;;;;16.05;6.63;;;;;;;22.76;37.83;101052.53;16104069;19;130165;-44
2023/07/02 09:19:18;;;;;;;15.20;6.22;;;;;;;22.72;37.51;101050.28;16110734;19;129913;-46
2023/07/02 09:24:39;;;;;;;12.63;6.25;;;;;;;22.73;37.20;101045.53;16105603;19;131324;-44
2023/07/02 09:30:15;;;;;;;17.05;6.38;;;;;;;22.77;37.42;101060.63;16109465;19;129659;-44
2023/07/02 09:35:38;;;;;;;15.90;6.65;;;;;;;22.78;37.54;101053.09;16106298;19;129632;-46
2023/07/02 09:41:00;;;;;;;16.02;5.93;;;;;;;22.81;37.37;101056.19;16105442;19;130794;-42
2023/07/02 09:46:22;;;;;;;16.85;6.68;;;;;;;22.83;37.29;101044.75;16101501;19;133333;-47
2023/07/02 09:51:45;;;;;;;14.73;5.75;;;;;;;22.84;37.21;101041.69;16124216;19;130802;-46
2023/07/02 09:57:07;;;;;;;13.30;6.15;;;;;;;22.84;37.37;101041.69;16116805;19;130292;-46
2023/07/02 10:02:29;;;;;;;13.15;6.05;;;;;;;22.85;37.11;101040.56;16113305;19;132066;-46
2023/07/02 10:07:51;;;;;;;14.60;5.82;;;;;;;22.83;37.25;101042.78;16117513;19;130232;-42
2023/07/02 10:13:13;;;;;;;17.67;6.68;;;;;;;22.81;37.27;101056.19;16116403;19;130782;-44
2023/07/02 10:18:34;;;;;;;15.05;6.68;;;;;;;22.79;37.18;101057.56;16118886;19;129446;-45
2023/07/02 10:23:56;;;;;;;15.35;6.20;;;;;;;22.77;37.39;101059.81;16118096;19;130547;-46
2023/07/02 10:29:20;;;;;;;15.63;7.57;;;;;;;22.77;37.28;101068.16;16120004;19;129475;-45
2023/07/02 10:34:42;;;;;;;18.50;7.50;;;;;;;22.78;37.51;101061.44;16113434;19;129799;-44
2023/07/02 10:40:07;;;;;;;17.80;7.35;;;;;;;22.76;37.08;101064.53;16114948;19;130635;-43
2023/07/02 10:45:33;;;;;;;15.90;7.72;;;;;;;22.73;37.31;101082.66;16115239;19;130353;-44
2023/07/02 10:50:56;;;;;;;21.25;8.75;;;;;;;22.72;37.18;101069.81;16117975;19;129541;-46
2023/07/02 10:56:17;;;;;;;16.80;7.85;;;;;;;22.73;36.65;101070.63;16117806;19;130005;-48
2023/07/02 11:01:39;;;;;;;15.90;7.80;;;;;;;22.76;36.55;101060.91;16117278;19;129721;-48
2023/07/02 11:07:01;;;;;;;21.52;7.65;;;;;;;22.78;36.74;101067.03;16117520;19;129612;-48
2023/07/02 11:12:30;;;;;;;18.80;7.70;;;;;;;22.80;36.35;101057.31;16113051;19;130149;-45
2023/07/02 11:17:52;;;;;;;19.77;7.85;;;;;;;22.80;36.29;101059.25;16115699;19;130156;-47
2023/07/02 11:23:24;;;;;;;17.45;7.25;;;;;;;22.83;36.54;101058.69;16118923;19;129752;-48
2023/07/02 11:28:50;;;;;;;16.58;7.50;;;;;;;22.83;36.67;101065.09;16113631;19;129551;-49
2023/07/02 11:34:17;;;;;;;14.30;7.45;;;;;;;22.87;36.29;101065.44;16111843;19;130423;-48
2023/07/02 11:39:43;;;;;;;14.60;6.85;;;;;;;22.91;36.76;101069.34;16107890;19;130387;-46
2023/07/02 11:45:05;;;;;;;10.67;6.07;;;;;;;22.94;36.46;101063.25;16108074;19;132296;-46
2023/07/02 11:50:30;;;;;;;12.05;6.55;;;;;;;22.93;36.36;101067.16;16113344;19;130818;-47
2023/07/02 11:55:52;;;;;;;15.07;5.87;;;;;;;22.91;36.51;101080.53;16108466;19;134774;-44
2023/07/02 12:01:13;;;;;;;10.57;5.78;;;;;;;22.95;36.53;101078.03;16105230;19;130803;-46
2023/07/02 12:06:35;;;;;;;19.60;5.75;;;;;;;22.99;36.87;101080.03;16110105;19;130483;-48
2023/07/02 12:11:57;;;;;;;17.15;5.65;;;;;;;23.00;37.05;101070.53;16110206;19;130063;-51
2023/07/02 12:17:19;;;;;;;17.25;6.72;;;;;;;23.02;36.45;101071.06;16111051;19;130341;-46
2023/07/02 12:22:41;;;;;;;13.82;5.13;;;;;;;23.03;37.23;101069.16;16099097;19;131443;-44
2023/07/02 12:28:04;;;;;;;13.77;5.90;;;;;;;23.06;37.10;101079.75;16110388;19;130215;-51
2023/07/02 12:33:26;;;;;;;15.25;6.00;;;;;;;23.11;37.62;101076.16;16110514;19;130066;-49
2023/07/02 12:38:48;;;;;;;16.63;5.68;;;;;;;23.15;37.44;101077.25;16111793;19;129980;-45
2023/07/02 12:44:10;;;;;;;9.82;5.35;;;;;;;23.19;37.31;101084.84;16108076;19;131331;-45
2023/07/02 12:49:31;;;;;;;11.95;5.75;;;;;;;23.25;37.20;101082.91;16111928;19;133450;-44
2023/07/02 12:54:53;;;;;;;12.75;5.40;;;;;;;23.27;36.98;101074.25;16113138;19;129655;-44
2023/07/02 13:00:15;;;;;;;11.40;5.32;;;;;;;23.30;37.25;101082.91;16105935;19;129880;-50
2023/07/02 13:05:38;;;;;;;13.02;5.65;;;;;;;23.33;36.96;101079.56;16109368;19;135942;-47
2023/07/02 13:11:00;;;;;;;11.85;5.80;;;;;;;23.33;37.03;101079.56;16108539;19;129808;-48
2023/07/02 13:16:22;;;;;;;10.23;5.15;;;;;;;23.37;36.95;101085.44;16107882;19;130064;-46
2023/07/02 13:21:43;;;;;;;12.75;5.63;;;;;;;23.35;36.96;101077.34;16103045;19;130959;-49
2023/07/02 13:27:12;;;;;;;12.05;5.75;;;;;;;23.37;36.86;101073.44;16103568;19;130120;-48
2023/07/02 13:32:34;;;;;;;9.73;4.50;;;;;;;23.35;36.87;101076.50;16110162;19;131832;-49
2023/07/02 13:37:56;;;;;;;13.77;5.20;;;;;;;23.40;36.75;101081.25;16105069;19;129138;-47
2023/07/02 13:43:18;;;;;;;13.02;4.72;;;;;;;23.38;36.73;101083.50;16105898;19;129702;-52
2023/07/02 13:48:40;;;;;;;10.10;5.05;;;;;;;23.39;36.67;101082.34;16099781;19;130743;-49
2023/07/02 13:54:02;;;;;;;10.02;4.95;;;;;;;23.42;36.92;101082.66;16103163;19;130672;-51
2023/07/02 13:59:24;;;;;;;9.82;5.15;;;;;;;23.42;37.27;101077.09;16105179;19;130290;-47
2023/07/02 14:04:46;;;;;;;15.68;5.55;;;;;;;23.43;36.97;101089.06;16102209;19;130752;-49
2023/07/02 14:10:09;;;;;;;11.07;5.10;;;;;;;23.41;36.88;101088.50;16102698;19;129689;-49
2023/07/02 14:15:30;;;;;;;9.48;4.70;;;;;;;23.42;37.05;101070.66;16105115;19;131099;-50
2023/07/02 14:20:53;;;;;;;10.85;4.90;;;;;;;23.44;36.99;101066.47;16100789;19;131221;-49
2023/07/02 14:26:15;;;;;;;11.98;5.05;;;;;;;23.44;36.77;101051.66;16101877;19;130651;-47
2023/07/02 14:31:37;;;;;;;15.95;4.70;;;;;;;23.44;36.92;101051.66;16102515;19;133753;-47
2023/07/02 14:36:59;;;;;;;14.85;4.63;;;;;;;23.45;36.79;101044.97;16113911;19;130186;-47
2023/07/02 14:42:21;;;;;;;12.75;5.38;;;;;;;23.48;36.68;101042.47;16115934;19;129982;-46
2023/07/02 14:47:43;;;;;;;10.00;4.63;;;;;;;23.50;36.86;101033.81;16112580;19;129876;-49
2023/07/02 14:53:05;;;;;;;18.58;5.38;;;;;;;23.50;36.60;101040.22;16113106;19;129840;-49
2023/07/02 14:58:28;;;;;;;14.18;4.90;;;;;;;23.48;36.77;101039.66;16114194;19;130559;-53
2023/07/02 15:03:50;;;;;;;10.38;5.03;;;;;;;23.49;36.57;101044.13;16116088;19;129553;-49
2023/07/02 15:09:12;;;;;;;9.75;5.28;;;;;;;23.49;36.58;101043.31;16116274;19;130059;-48
2023/07/02 15:14:34;;;;;;;16.55;5.50;;;;;;;23.49;36.68;101043.31;16117647;19;129475;-47
2023/07/02 15:19:58;;;;;;;13.18;5.22;;;;;;;23.50;36.74;101036.63;16087661;19;130418;-49
2023/07/02 15:25:20;;;;;;;12.13;4.78;;;;;;;23.47;36.83;101035.19;16081081;19;130248;-47
2023/07/02 15:30:46;;;;;;;10.60;4.95;;;;;;;23.47;36.58;101034.38;16103251;19;131069;-46
2023/07/02 15:36:09;;;;;;;12.07;5.68;;;;;;;23.46;36.38;101029.91;16114276;19;129471;-46
2023/07/02 15:41:31;;;;;;;16.13;6.10;;;;;;;23.43;36.18;101022.06;16114692;19;129710;-50
2023/07/02 15:46:53;;;;;;;11.93;5.40;;;;;;;23.42;36.64;101026.84;16109830;19;130402;-49
2023/07/02 15:52:16;;;;;;;18.58;5.70;;;;;;;23.43;36.20;101013.69;16113140;19;129562;-50
2023/07/02 15:57:38;;;;;;;12.88;5.38;;;;;;;23.44;36.28;101012.59;16111909;19;129946;-50
2023/07/02 16:03:00;;;;;;;9.52;4.82;;;;;;;23.42;35.87;101010.06;16108602;19;130629;-43
2023/07/02 16:08:22;;;;;;;12.10;5.25;;;;;;;23.43;36.52;101016.50;16110283;19;130592;-47
2023/07/02 16:13:44;;;;;;;10.63;5.05;;;;;;;23.43;36.67;101005.31;16115226;19;130695;-47
2023/07/02 16:19:08;;;;;;;11.10;5.43;;;;;;;23.42;36.50;101003.63;16107486;19;130754;-46
2023/07/02 16:24:32;;;;;;;11.13;4.80;;;;;;;23.41;36.59;101004.75;16105005;19;130991;-48
2023/07/02 16:29:54;;;;;;;10.45;5.13;;;;;;;23.39;36.65;101009.78;16110043;19;130323;-48
2023/07/02 16:35:16;;;;;;;9.25;4.32;;;;;;;23.40;36.69;101011.44;16109027;19;131695;-47
2023/07/02 16:40:38;;;;;;;10.63;4.40;;;;;;;23.39;36.52;101010.63;16108521;19;129256;-49
2023/07/02 16:46:00;;;;;;;7.20;4.32;;;;;;;23.40;36.76;101005.88;16109457;19;130787;-45
2023/07/02 16:51:22;;;;;;;8.00;4.25;;;;;;;23.41;36.48;101013.13;16113346;19;129705;-49
2023/07/02 16:56:48;;;;;;;7.30;4.15;;;;;;;23.41;36.59;101013.97;16102329;19;129641;-49
2023/07/02 17:02:10;;;;;;;11.25;4.90;;;;;;;23.42;36.77;101010.06;16107585;19;129306;-46
2023/07/02 17:07:31;;;;;;;9.57;4.25;;;;;;;23.42;36.83;101010.06;16106670;19;131310;-48
2023/07/02 17:12:53;;;;;;;7.85;3.90;;;;;;;23.41;36.64;101019.56;16106397;19;129836;-46
2023/07/02 17:18:15;;;;;;;19.30;5.13;;;;;;;23.41;36.61;101018.72;16096698;19;130399;-56
2023/07/02 17:23:37;;;;;;;10.07;4.70;;;;;;;23.46;36.19;101010.34;16098600;19;130212;-55
2023/07/02 17:28:59;;;;;;;10.75;4.10;;;;;;;23.51;36.80;101007.56;16104653;19;130319;-54
2023/07/02 17:34:24;;;;;;;17.92;4.30;;;;;;;23.54;36.17;101018.16;16103286;19;129580;-57
2023/07/02 17:39:47;;;;;;;13.10;4.50;;;;;;;23.54;36.55;101008.97;16105323;19;130342;-57
2023/07/02 17:45:09;;;;;;;13.75;3.75;;;;;;;23.54;36.14;101009.78;16102167;19;131029;-55
2023/07/02 17:50:32;;;;;;;12.10;4.00;;;;;;;23.55;36.30;101014.25;16105116;19;132288;-57
2023/07/02 17:55:53;;;;;;;9.15;3.78;;;;;;;23.57;36.59;101020.41;16102113;19;131092;-55
2023/07/02 18:01:17;;;;;;;7.90;3.58;;;;;;;23.61;36.52;101018.78;16101765;19;130613;-56
2023/07/02 18:06:43;;;;;;;7.38;3.55;;;;;;;23.63;36.63;101013.72;16098203;19;130335;-56
2023/07/02 18:12:07;;;;;;;9.65;3.50;;;;;;;23.62;36.44;101011.22;16116458;19;130902;-56
2023/07/02 18:17:29;;;;;;;12.48;3.85;;;;;;;23.63;36.66;101010.94;16117978;19;130399;-57
2023/07/02 18:22:51;;;;;;;11.55;3.75;;;;;;;23.60;36.23;101019.91;16116635;19;129707;-56
2023/07/02 18:28:14;;;;;;;10.45;3.42;;;;;;;23.63;37.01;101024.09;16122185;19;131462;-58
2023/07/02 18:33:36;;;;;;;9.30;3.20;;;;;;;23.61;36.56;101018.78;16121609;19;130243;-58
2023/07/02 18:38:58;;;;;;;9.27;3.30;;;;;;;23.60;36.58;101030.22;16115894;19;130102;-57
2023/07/02 18:44:20;;;;;;;12.52;3.47;;;;;;;23.58;36.52;101027.72;16115325;19;130768;-58
2023/07/02 18:49:42;;;;;;;14.82;3.75;;;;;;;23.59;36.66;101025.75;16113851;19;129476;-57
2023/07/02 18:55:04;;;;;;;15.52;3.10;;;;;;;23.56;36.58;101031.88;16116924;19;129871;-58
2023/07/02 19:00:26;;;;;;;8.18;3.28;;;;;;;23.55;36.71;101031.03;16121470;19;130543;-54
2023/07/02 19:05:49;;;;;;;9.73;3.25;;;;;;;23.54;36.81;101029.34;16105107;19;130065;-58
2023/07/02 19:11:12;;;;;;;14.50;3.42;;;;;;;23.52;36.50;101028.78;16104761;19;135426;-54
2023/07/02 19:16:35;;;;;;;6.63;2.38;;;;;;;23.51;36.72;101027.09;16110669;19;131091;-55
2023/07/02 19:21:57;;;;;;;13.80;3.20;;;;;;;23.49;36.84;101034.94;16108934;19;135160;-55
2023/07/02 19:27:19;;;;;;;10.70;2.63;;;;;;;23.49;37.29;101034.94;16113109;19;132020;-55
2023/07/02 19:32:44;;;;;;;12.32;3.05;;;;;;;23.47;37.01;101039.94;16110682;19;130865;-55
2023/07/02 19:38:06;;;;;;;8.50;2.30;;;;;;;23.46;37.15;101043.84;16107493;19;129917;-53
2023/07/02 19:43:28;;;;;;;11.70;3.00;;;;;;;23.45;37.00;101042.19;16113033;19;130447;-56
2023/07/02 19:48:50;;;;;;;13.98;2.70;;;;;;;23.45;36.63;101053.34;16105802;19;130718;-57
2023/07/02 19:54:15;;;;;;;9.80;2.78;;;;;;;23.44;36.79;101060.03;16108729;19;133941;-54
2023/07/02 19:59:38;;;;;;;9.67;2.80;;;;;;;23.43;36.70;101069.53;16106310;19;134247;-54
2023/07/02 20:05:05;;;;;;;9.43;2.88;;;;;;;23.43;37.06;101081.56;16109465;19;130856;-56
2023/07/02 20:10:27;;;;;;;12.88;3.03;;;;;;;23.42;36.60;101079.03;16107745;19;131037;-57
2023/07/02 20:15:49;;;;;;;8.38;2.75;;;;;;;23.39;36.55;101080.41;16108973;19;130752;-55
2023/07/02 20:21:15;;;;;;;10.50;2.22;;;;;;;23.35;36.27;101088.50;16111169;19;130389;-57
2023/07/02 20:26:37;;;;;;;26.17;2.90;;;;;;;23.31;36.52;101080.97;16113467;19;135441;-55
2023/07/02 20:31:59;;;;;;;13.32;2.45;;;;;;;23.27;36.79;101089.03;16108580;19;129257;-57
2023/07/02 20:37:21;;;;;;;14.63;2.50;;;;;;;23.25;36.69;101082.03;16107924;19;129547;-56
2023/07/02 20:42:43;;;;;;;19.70;2.45;;;;;;;23.25;36.85;101071.75;16108184;19;132044;-57
2023/07/02 20:48:05;;;;;;;7.78;2.13;;;;;;;23.24;36.93;101075.63;16109259;19;129597;-54
2023/07/02 20:53:27;;;;;;;9.27;2.60;;;;;;;23.22;37.14;101077.00;16111428;19;129683;-54
2023/07/02 20:58:50;;;;;;;13.77;2.90;;;;;;;23.24;37.28;101080.38;16106938;19;131496;-56
2023/07/02 21:04:12;;;;;;;11.60;2.22;;;;;;;23.21;37.14;101076.19;16111974;19;135092;-57
2023/07/02 21:09:36;;;;;;;13.98;2.08;;;;;;;23.19;37.50;101084.00;16106921;19;130896;-57
2023/07/02 21:14:58;;;;;;;8.17;2.07;;;;;;;23.16;37.45;101090.09;16105559;19;130529;-58
2023/07/02 21:20:20;;;;;;;10.70;1.90;;;;;;;23.14;37.44;101089.56;16109776;19;129971;-57
2023/07/02 21:25:43;;;;;;;8.88;2.05;;;;;;;23.12;37.41;101089.00;16105075;19;130778;-57
2023/07/02 21:31:05;;;;;;;8.20;1.95;;;;;;;23.09;37.28;101084.78;16110945;19;129494;-56
2023/07/02 21:36:27;;;;;;;11.05;2.30;;;;;;;23.08;37.58;101082.28;16108804;19;132085;-58
2023/07/02 21:41:49;;;;;;;7.00;1.75;;;;;;;23.07;37.51;101077.81;16106251;19;130011;-58
2023/07/02 21:47:11;;;;;;;6.50;1.60;;;;;;;23.05;37.57;101090.06;16116301;19;130735;-58
2023/07/02 21:52:33;;;;;;;6.03;1.50;;;;;;;23.05;37.51;101090.06;16118183;19;129866;-57
2023/07/02 21:57:55;;;;;;;6.00;1.75;;;;;;;23.04;37.43;101093.97;16123318;19;130026;-57
2023/07/02 22:03:17;;;;;;;6.22;1.58;;;;;;;23.03;37.63;101092.28;16119170;19;134919;-53
2023/07/02 22:08:39;;;;;;;5.68;1.23;;;;;;;23.02;37.51;101089.78;16117704;19;129611;-55
2023/07/02 22:14:01;;;;;;;4.72;1.58;;;;;;;22.99;37.76;101091.19;16120224;19;129776;-59
2023/07/02 22:19:30;;;;;;;5.22;1.40;;;;;;;22.98;37.67;101085.84;16118809;19;131496;-57
2023/07/02 22:24:53;;;;;;;5.38;1.20;;;;;;;22.97;37.84;101079.44;16117693;19;130254;-57
2023/07/02 22:30:16;;;;;;;4.85;1.33;;;;;;;22.96;37.88;101088.06;16120606;19;130292;-55
2023/07/02 22:35:38;;;;;;;5.43;1.38;;;;;;;22.95;37.80;101083.63;16114226;19;129699;-57
2023/07/02 22:40:59;;;;;;;2.95;1.10;;;;;;;22.93;37.78;101075.50;16117729;19;129908;-56
2023/07/02 22:46:21;;;;;;;4.78;1.60;;;;;;;22.91;37.91;101074.94;16115460;19;129592;-57
2023/07/02 22:51:43;;;;;;;1.77;0.80;;;;;;;22.91;37.50;101069.34;16115616;19;129618;-58
2023/07/02 22:57:06;;;;;;;2.63;1.20;;;;;;;22.87;37.85;101066.25;16113465;19;129734;-56
2023/07/02 23:02:28;;;;;;;3.70;1.23;;;;;;;22.86;37.87;101061.78;16115785;19;130228;-54
2023/07/02 23:07:50;;;;;;;3.78;1.02;;;;;;;22.85;37.96;101064.84;16116857;19;130316;-58
2023/07/02 23:13:12;;;;;;;3.55;1.38;;;;;;;22.83;37.93;101064.28;16118329;19;130236;-57
2023/07/02 23:18:34;;;;;;;3.00;1.17;;;;;;;22.83;37.94;101058.69;16114292;19;130707;-56
2023/07/02 23:23:58;;;;;;;2.60;1.15;;;;;;;22.81;37.94;101046.97;16115042;19;129912;-55
2023/07/02 23:29:20;;;;;;;2.45;0.93;;;;;;;22.81;38.17;101046.97;16113712;19;131265;-57
2023/07/02 23:34:42;;;;;;;5.75;1.20;;;;;;;22.78;38.05;101031.63;16110369;19;130446;-57
2023/07/02 23:40:08;;;;;;;2.60;1.10;;;;;;;22.77;37.85;101029.94;16112574;19;129764;-56
2023/07/02 23:45:30;;;;;;;2.00;0.88;;;;;;;22.76;38.04;101024.66;16112924;19;131008;-58
2023/07/02 23:50:52;;;;;;;3.38;1.05;;;;;;;22.76;38.03;101024.66;16113163;19;130079;-56
2023/07/02 23:56:14;;;;;;;2.17;1.08;;;;;;;22.74;38.08;101022.97;16114481;19;129483;-56
